sensor_id;sensor_type;location;lat;lon;timestamp;P1;durP1;ratioP1;P2;durP2;ratioP2
65822;SDS011;52585;47.566;19.056;2022-07-30T00:00:06;2.90;;;2.50;;
65822;SDS011;52585;47.566;19.056;2022-07-30T00:02:33;4.70;;;2.40;;
65822;SDS011;52585;47.566;19.056;2022-07-30T00:04:58;3.80;;;2.60;;
65822;SDS011;52585;47.566;19.056;2022-07-30T00:07:24;2.80;;;2.40;;
65822;SDS011;52585;47.566;19.056;2022-07-30T00:09:50;4.30;;;2.70;;
65822;SDS011;52585;47.566;19.056;2022-07-30T00:12:15;6.80;;;2.80;;
65822;SDS011;52585;47.566;19.056;2022-07-30T00:14:41;3.80;;;2.50;;
65822;SDS011;52585;47.566;19.056;2022-07-30T00:17:07;2.80;;;2.60;;
65822;SDS011;52585;47.566;19.056;2022-07-30T00:19:32;4.00;;;2.70;;
65822;SDS011;52585;47.566;19.056;2022-07-30T00:21:58;5.30;;;2.70;;
65822;SDS011;52585;47.566;19.056;2022-07-30T00:24:24;5.00;;;2.50;;
65822;SDS011;52585;47.566;19.056;2022-07-30T00:26:50;4.00;;;2.70;;
65822;SDS011;52585;47.566;19.056;2022-07-30T00:29:15;9.20;;;2.50;;
65822;SDS011;52585;47.566;19.056;2022-07-30T00:31:41;4.20;;;2.90;;
65822;SDS011;52585;47.566;19.056;2022-07-30T00:34:07;2.70;;;2.60;;
65822;SDS011;52585;47.566;19.056;2022-07-30T00:36:33;3.90;;;2.70;;
65822;SDS011;52585;47.566;19.056;2022-07-30T00:38:58;3.00;;;2.70;;
65822;SDS011;52585;47.566;19.056;2022-07-30T00:41:25;2.70;;;2.40;;
65822;SDS011;52585;47.566;19.056;2022-07-30T00:43:51;2.80;;;2.50;;
65822;SDS011;52585;47.566;19.056;2022-07-30T00:46:17;5.00;;;2.70;;
65822;SDS011;52585;47.566;19.056;2022-07-30T00:48:43;3.40;;;2.80;;
65822;SDS011;52585;47.566;19.056;2022-07-30T00:51:10;3.80;;;3.00;;
65822;SDS011;52585;47.566;19.056;2022-07-30T00:53:36;2.70;;;2.50;;
65822;SDS011;52585;47.566;19.056;2022-07-30T00:56:03;2.90;;;2.60;;
65822;SDS011;52585;47.566;19.056;2022-07-30T00:58:29;3.90;;;2.70;;
65822;SDS011;52585;47.566;19.056;2022-07-30T01:00:55;3.50;;;2.60;;
65822;SDS011;52585;47.566;19.056;2022-07-30T01:03:21;3.00;;;2.30;;
65822;SDS011;52585;47.566;19.056;2022-07-30T01:05:47;2.80;;;2.50;;
65822;SDS011;52585;47.566;19.056;2022-07-30T01:08:13;3.60;;;2.70;;
65822;SDS011;52585;47.566;19.056;2022-07-30T01:10:38;6.60;;;3.00;;
65822;SDS011;52585;47.566;19.056;2022-07-30T01:13:05;6.30;;;2.60;;
65822;SDS011;52585;47.566;19.056;2022-07-30T01:15:33;3.40;;;2.70;;
65822;SDS011;52585;47.566;19.056;2022-07-30T01:18:03;4.80;;;2.80;;
65822;SDS011;52585;47.566;19.056;2022-07-30T01:20:38;2.50;;;2.30;;
65822;SDS011;52585;47.566;19.056;2022-07-30T01:23:35;3.60;;;2.50;;
65822;SDS011;52585;47.566;19.056;2022-07-30T01:26:11;3.10;;;2.90;;
65822;SDS011;52585;47.566;19.056;2022-07-30T01:28:45;3.10;;;2.90;;
65822;SDS011;52585;47.566;19.056;2022-07-30T01:31:14;3.30;;;2.90;;
65822;SDS011;52585;47.566;19.056;2022-07-30T01:33:44;3.50;;;2.90;;
65822;SDS011;52585;47.566;19.056;2022-07-30T01:36:15;2.80;;;2.50;;
65822;SDS011;52585;47.566;19.056;2022-07-30T01:38:44;3.30;;;3.00;;
65822;SDS011;52585;47.566;19.056;2022-07-30T01:41:12;3.70;;;2.90;;
65822;SDS011;52585;47.566;19.056;2022-07-30T01:43:40;5.00;;;2.60;;
65822;SDS011;52585;47.566;19.056;2022-07-30T01:46:09;5.10;;;3.00;;
65822;SDS011;52585;47.566;19.056;2022-07-30T01:48:38;3.00;;;2.90;;
65822;SDS011;52585;47.566;19.056;2022-07-30T01:51:08;3.00;;;2.70;;
65822;SDS011;52585;47.566;19.056;2022-07-30T01:53:37;2.90;;;2.60;;
65822;SDS011;52585;47.566;19.056;2022-07-30T01:56:07;2.70;;;2.50;;
65822;SDS011;52585;47.566;19.056;2022-07-30T01:58:37;4.20;;;3.00;;
65822;SDS011;52585;47.566;19.056;2022-07-30T02:01:04;3.00;;;2.80;;
65822;SDS011;52585;47.566;19.056;2022-07-30T02:03:31;3.60;;;2.70;;
65822;SDS011;52585;47.566;19.056;2022-07-30T02:06:04;3.10;;;2.80;;
65822;SDS011;52585;47.566;19.056;2022-07-30T02:11:19;3.30;;;2.60;;
65822;SDS011;52585;47.566;19.056;2022-07-30T02:14:13;4.70;;;2.60;;
65822;SDS011;52585;47.566;19.056;2022-07-30T02:16:46;2.80;;;2.60;;
65822;SDS011;52585;47.566;19.056;2022-07-30T02:19:18;7.00;;;3.10;;
65822;SDS011;52585;47.566;19.056;2022-07-30T02:21:58;4.00;;;2.70;;
65822;SDS011;52585;47.566;19.056;2022-07-30T02:24:28;3.50;;;2.90;;
65822;SDS011;52585;47.566;19.056;2022-07-30T02:27:00;4.20;;;2.90;;
65822;SDS011;52585;47.566;19.056;2022-07-30T02:29:33;4.70;;;2.90;;
65822;SDS011;52585;47.566;19.056;2022-07-30T02:32:05;5.80;;;2.80;;
65822;SDS011;52585;47.566;19.056;2022-07-30T02:34:36;3.00;;;2.80;;
65822;SDS011;52585;47.566;19.056;2022-07-30T02:37:05;4.40;;;3.40;;
65822;SDS011;52585;47.566;19.056;2022-07-30T02:39:33;3.90;;;3.10;;
65822;SDS011;52585;47.566;19.056;2022-07-30T02:42:02;3.90;;;2.80;;
65822;SDS011;52585;47.566;19.056;2022-07-30T02:44:29;3.80;;;3.20;;
65822;SDS011;52585;47.566;19.056;2022-07-30T02:46:57;5.20;;;2.70;;
65822;SDS011;52585;47.566;19.056;2022-07-30T02:49:25;3.30;;;3.00;;
65822;SDS011;52585;47.566;19.056;2022-07-30T02:51:53;3.20;;;2.90;;
65822;SDS011;52585;47.566;19.056;2022-07-30T02:54:20;3.30;;;2.80;;
65822;SDS011;52585;47.566;19.056;2022-07-30T02:56:48;3.70;;;3.00;;
65822;SDS011;52585;47.566;19.056;2022-07-30T02:59:17;3.30;;;3.00;;
65822;SDS011;52585;47.566;19.056;2022-07-30T03:01:46;3.80;;;3.10;;
65822;SDS011;52585;47.566;19.056;2022-07-30T03:04:13;3.80;;;2.80;;
65822;SDS011;52585;47.566;19.056;2022-07-30T03:06:43;3.60;;;3.10;;
65822;SDS011;52585;47.566;19.056;2022-07-30T03:09:10;3.10;;;2.90;;
65822;SDS011;52585;47.566;19.056;2022-07-30T03:11:37;3.10;;;2.90;;
65822;SDS011;52585;47.566;19.056;2022-07-30T03:14:04;2.80;;;2.60;;
65822;SDS011;52585;47.566;19.056;2022-07-30T03:16:33;4.30;;;3.00;;
65822;SDS011;52585;47.566;19.056;2022-07-30T03:19:05;5.90;;;2.80;;
65822;SDS011;52585;47.566;19.056;2022-07-30T03:21:35;3.30;;;2.70;;
65822;SDS011;52585;47.566;19.056;2022-07-30T03:24:04;3.50;;;2.90;;
65822;SDS011;52585;47.566;19.056;2022-07-30T03:26:32;4.20;;;2.90;;
65822;SDS011;52585;47.566;19.056;2022-07-30T03:29:03;2.80;;;2.60;;
65822;SDS011;52585;47.566;19.056;2022-07-30T03:31:30;3.10;;;2.50;;
65822;SDS011;52585;47.566;19.056;2022-07-30T03:33:57;3.80;;;3.00;;
65822;SDS011;52585;47.566;19.056;2022-07-30T03:36:24;3.80;;;2.60;;
65822;SDS011;52585;47.566;19.056;2022-07-30T03:38:51;3.10;;;2.90;;
65822;SDS011;52585;47.566;19.056;2022-07-30T03:41:18;4.10;;;2.20;;
65822;SDS011;52585;47.566;19.056;2022-07-30T03:43:46;3.50;;;2.50;;
65822;SDS011;52585;47.566;19.056;2022-07-30T03:46:12;3.50;;;2.70;;
65822;SDS011;52585;47.566;19.056;2022-07-30T03:48:38;2.80;;;2.50;;
65822;SDS011;52585;47.566;19.056;2022-07-30T03:51:06;3.20;;;2.60;;
65822;SDS011;52585;47.566;19.056;2022-07-30T03:53:34;3.10;;;2.40;;
65822;SDS011;52585;47.566;19.056;2022-07-30T03:56:01;3.00;;;2.50;;
65822;SDS011;52585;47.566;19.056;2022-07-30T03:58:27;5.10;;;2.40;;
65822;SDS011;52585;47.566;19.056;2022-07-30T04:00:54;3.50;;;2.70;;
65822;SDS011;52585;47.566;19.056;2022-07-30T04:03:28;5.10;;;2.80;;
65822;SDS011;52585;47.566;19.056;2022-07-30T04:05:56;2.80;;;2.60;;
65822;SDS011;52585;47.566;19.056;2022-07-30T04:08:22;2.70;;;2.50;;
65822;SDS011;52585;47.566;19.056;2022-07-30T04:10:48;3.50;;;2.70;;
65822;SDS011;52585;47.566;19.056;2022-07-30T04:13:16;5.00;;;2.70;;
65822;SDS011;52585;47.566;19.056;2022-07-30T04:16:46;3.80;;;2.40;;
65822;SDS011;52585;47.566;19.056;2022-07-30T04:19:00;2.90;;;2.70;;
65822;SDS011;52585;47.566;19.056;2022-07-30T04:21:28;4.30;;;2.50;;
65822;SDS011;52585;47.566;19.056;2022-07-30T04:23:56;4.40;;;2.60;;
65822;SDS011;52585;47.566;19.056;2022-07-30T04:26:25;3.60;;;2.40;;
65822;SDS011;52585;47.566;19.056;2022-07-30T04:28:56;3.00;;;2.70;;
65822;SDS011;52585;47.566;19.056;2022-07-30T04:31:23;3.20;;;2.40;;
65822;SDS011;52585;47.566;19.056;2022-07-30T04:33:49;3.90;;;2.50;;
65822;SDS011;52585;47.566;19.056;2022-07-30T04:36:15;3.10;;;2.70;;
65822;SDS011;52585;47.566;19.056;2022-07-30T04:38:40;2.80;;;2.50;;
65822;SDS011;52585;47.566;19.056;2022-07-30T04:41:06;4.10;;;2.70;;
65822;SDS011;52585;47.566;19.056;2022-07-30T04:43:32;2.70;;;2.50;;
65822;SDS011;52585;47.566;19.056;2022-07-30T04:45:58;3.50;;;2.40;;
65822;SDS011;52585;47.566;19.056;2022-07-30T04:48:23;3.00;;;2.70;;
65822;SDS011;52585;47.566;19.056;2022-07-30T04:50:54;3.20;;;3.00;;
65822;SDS011;52585;47.566;19.056;2022-07-30T04:53:24;3.40;;;2.70;;
65822;SDS011;52585;47.566;19.056;2022-07-30T04:55:52;2.70;;;2.50;;
65822;SDS011;52585;47.566;19.056;2022-07-30T04:58:22;2.60;;;2.40;;
65822;SDS011;52585;47.566;19.056;2022-07-30T05:00:50;3.00;;;2.70;;
65822;SDS011;52585;47.566;19.056;2022-07-30T05:03:20;3.10;;;2.80;;
65822;SDS011;52585;47.566;19.056;2022-07-30T05:05:47;6.90;;;2.90;;
65822;SDS011;52585;47.566;19.056;2022-07-30T05:08:14;3.10;;;2.80;;
65822;SDS011;52585;47.566;19.056;2022-07-30T05:10:41;6.50;;;2.90;;
65822;SDS011;52585;47.566;19.056;2022-07-30T05:13:12;3.30;;;3.10;;
65822;SDS011;52585;47.566;19.056;2022-07-30T05:15:39;2.80;;;2.70;;
65822;SDS011;52585;47.566;19.056;2022-07-30T05:18:05;3.20;;;3.00;;
65822;SDS011;52585;47.566;19.056;2022-07-30T05:20:31;3.80;;;3.20;;
65822;SDS011;52585;47.566;19.056;2022-07-30T05:22:57;3.20;;;2.80;;
65822;SDS011;52585;47.566;19.056;2022-07-30T05:25:22;4.00;;;3.20;;
65822;SDS011;52585;47.566;19.056;2022-07-30T05:27:48;3.20;;;2.90;;
65822;SDS011;52585;47.566;19.056;2022-07-30T05:30:15;2.70;;;2.50;;
65822;SDS011;52585;47.566;19.056;2022-07-30T05:32:41;5.90;;;2.70;;
65822;SDS011;52585;47.566;19.056;2022-07-30T05:35:08;3.80;;;3.00;;
65822;SDS011;52585;47.566;19.056;2022-07-30T05:37:34;5.60;;;2.60;;
65822;SDS011;52585;47.566;19.056;2022-07-30T05:40:00;3.40;;;3.10;;
65822;SDS011;52585;47.566;19.056;2022-07-30T05:42:25;6.00;;;3.10;;
65822;SDS011;52585;47.566;19.056;2022-07-30T05:44:51;2.90;;;2.60;;
65822;SDS011;52585;47.566;19.056;2022-07-30T05:47:17;3.20;;;3.00;;
65822;SDS011;52585;47.566;19.056;2022-07-30T05:49:45;4.10;;;2.70;;
65822;SDS011;52585;47.566;19.056;2022-07-30T05:52:11;4.40;;;3.00;;
65822;SDS011;52585;47.566;19.056;2022-07-30T05:54:37;3.40;;;3.00;;
65822;SDS011;52585;47.566;19.056;2022-07-30T05:57:02;4.90;;;3.50;;
65822;SDS011;52585;47.566;19.056;2022-07-30T05:59:29;3.40;;;3.20;;
65822;SDS011;52585;47.566;19.056;2022-07-30T06:01:54;4.10;;;3.00;;
65822;SDS011;52585;47.566;19.056;2022-07-30T06:04:20;3.40;;;3.20;;
65822;SDS011;52585;47.566;19.056;2022-07-30T06:06:48;5.90;;;3.20;;
65822;SDS011;52585;47.566;19.056;2022-07-30T06:09:14;3.40;;;3.00;;
65822;SDS011;52585;47.566;19.056;2022-07-30T06:11:39;4.70;;;3.10;;
65822;SDS011;52585;47.566;19.056;2022-07-30T06:14:05;3.60;;;3.30;;
65822;SDS011;52585;47.566;19.056;2022-07-30T06:16:31;5.10;;;3.40;;
65822;SDS011;52585;47.566;19.056;2022-07-30T06:18:56;3.40;;;3.10;;
65822;SDS011;52585;47.566;19.056;2022-07-30T06:21:22;4.80;;;3.40;;
65822;SDS011;52585;47.566;19.056;2022-07-30T06:23:48;4.10;;;2.80;;
65822;SDS011;52585;47.566;19.056;2022-07-30T06:26:13;4.30;;;3.20;;
65822;SDS011;52585;47.566;19.056;2022-07-30T06:28:39;5.50;;;3.50;;
65822;SDS011;52585;47.566;19.056;2022-07-30T06:31:05;3.40;;;3.10;;
65822;SDS011;52585;47.566;19.056;2022-07-30T06:33:32;4.30;;;3.00;;
65822;SDS011;52585;47.566;19.056;2022-07-30T06:35:58;5.10;;;3.00;;
65822;SDS011;52585;47.566;19.056;2022-07-30T06:38:24;3.20;;;2.90;;
65822;SDS011;52585;47.566;19.056;2022-07-30T06:40:49;3.00;;;2.60;;
65822;SDS011;52585;47.566;19.056;2022-07-30T06:43:15;9.20;;;2.90;;
65822;SDS011;52585;47.566;19.056;2022-07-30T06:45:43;5.00;;;3.10;;
65822;SDS011;52585;47.566;19.056;2022-07-30T06:48:08;4.90;;;2.90;;
65822;SDS011;52585;47.566;19.056;2022-07-30T06:50:35;4.50;;;2.40;;
65822;SDS011;52585;47.566;19.056;2022-07-30T06:53:01;6.10;;;2.50;;
65822;SDS011;52585;47.566;19.056;2022-07-30T06:55:27;2.50;;;2.40;;
65822;SDS011;52585;47.566;19.056;2022-07-30T06:57:53;2.70;;;2.40;;
65822;SDS011;52585;47.566;19.056;2022-07-30T07:00:19;3.20;;;2.60;;
65822;SDS011;52585;47.566;19.056;2022-07-30T07:02:45;2.70;;;2.30;;
65822;SDS011;52585;47.566;19.056;2022-07-30T07:05:14;2.70;;;2.50;;
65822;SDS011;52585;47.566;19.056;2022-07-30T07:07:40;6.10;;;2.50;;
65822;SDS011;52585;47.566;19.056;2022-07-30T07:10:07;2.40;;;2.30;;
65822;SDS011;52585;47.566;19.056;2022-07-30T07:12:33;7.40;;;2.30;;
65822;SDS011;52585;47.566;19.056;2022-07-30T07:14:58;2.50;;;2.20;;
65822;SDS011;52585;47.566;19.056;2022-07-30T07:17:24;2.60;;;2.40;;
65822;SDS011;52585;47.566;19.056;2022-07-30T07:19:50;2.30;;;2.20;;
65822;SDS011;52585;47.566;19.056;2022-07-30T07:22:15;2.50;;;2.40;;
65822;SDS011;52585;47.566;19.056;2022-07-30T07:24:41;2.70;;;2.40;;
65822;SDS011;52585;47.566;19.056;2022-07-30T07:27:07;2.50;;;2.30;;
65822;SDS011;52585;47.566;19.056;2022-07-30T07:29:33;2.30;;;2.20;;
65822;SDS011;52585;47.566;19.056;2022-07-30T07:31:59;2.60;;;2.40;;
65822;SDS011;52585;47.566;19.056;2022-07-30T07:34:24;2.20;;;2.10;;
65822;SDS011;52585;47.566;19.056;2022-07-30T07:36:50;2.40;;;2.10;;
65822;SDS011;52585;47.566;19.056;2022-07-30T07:39:16;5.90;;;2.30;;
65822;SDS011;52585;47.566;19.056;2022-07-30T07:41:41;2.70;;;2.50;;
65822;SDS011;52585;47.566;19.056;2022-07-30T07:44:07;2.40;;;2.20;;
65822;SDS011;52585;47.566;19.056;2022-07-30T07:46:33;4.60;;;1.90;;
65822;SDS011;52585;47.566;19.056;2022-07-30T07:48:59;2.50;;;2.30;;
65822;SDS011;52585;47.566;19.056;2022-07-30T07:51:25;4.50;;;2.50;;
65822;SDS011;52585;47.566;19.056;2022-07-30T07:53:50;4.90;;;2.70;;
65822;SDS011;52585;47.566;19.056;2022-07-30T07:56:16;2.40;;;2.20;;
65822;SDS011;52585;47.566;19.056;2022-07-30T07:58:42;2.70;;;2.50;;
65822;SDS011;52585;47.566;19.056;2022-07-30T08:01:08;2.40;;;2.20;;
65822;SDS011;52585;47.566;19.056;2022-07-30T08:03:33;2.50;;;2.10;;
65822;SDS011;52585;47.566;19.056;2022-07-30T08:05:59;2.70;;;2.50;;
65822;SDS011;52585;47.566;19.056;2022-07-30T08:08:26;2.40;;;2.20;;
65822;SDS011;52585;47.566;19.056;2022-07-30T08:10:51;2.60;;;2.20;;
65822;SDS011;52585;47.566;19.056;2022-07-30T08:13:17;3.90;;;2.50;;
65822;SDS011;52585;47.566;19.056;2022-07-30T08:15:43;3.50;;;2.40;;
65822;SDS011;52585;47.566;19.056;2022-07-30T08:18:10;3.10;;;2.50;;
65822;SDS011;52585;47.566;19.056;2022-07-30T08:20:37;2.50;;;2.30;;
65822;SDS011;52585;47.566;19.056;2022-07-30T08:23:04;6.30;;;2.50;;
65822;SDS011;52585;47.566;19.056;2022-07-30T08:25:30;3.30;;;2.80;;
65822;SDS011;52585;47.566;19.056;2022-07-30T08:27:56;2.70;;;2.50;;
65822;SDS011;52585;47.566;19.056;2022-07-30T08:30:24;3.00;;;2.70;;
65822;SDS011;52585;47.566;19.056;2022-07-30T08:32:50;2.70;;;2.50;;
65822;SDS011;52585;47.566;19.056;2022-07-30T08:35:16;2.80;;;2.60;;
65822;SDS011;52585;47.566;19.056;2022-07-30T08:37:41;2.90;;;2.60;;
65822;SDS011;52585;47.566;19.056;2022-07-30T08:40:08;3.50;;;2.70;;
65822;SDS011;52585;47.566;19.056;2022-07-30T08:42:35;3.90;;;2.70;;
65822;SDS011;52585;47.566;19.056;2022-07-30T08:45:00;3.20;;;2.50;;
65822;SDS011;52585;47.566;19.056;2022-07-30T08:47:30;2.90;;;2.60;;
65822;SDS011;52585;47.566;19.056;2022-07-30T08:49:57;2.70;;;2.50;;
65822;SDS011;52585;47.566;19.056;2022-07-30T08:52:31;3.20;;;2.90;;
65822;SDS011;52585;47.566;19.056;2022-07-30T08:54:58;3.10;;;2.40;;
65822;SDS011;52585;47.566;19.056;2022-07-30T08:57:27;3.50;;;3.10;;
65822;SDS011;52585;47.566;19.056;2022-07-30T08:59:56;3.00;;;2.80;;
65822;SDS011;52585;47.566;19.056;2022-07-30T09:02:23;2.90;;;2.70;;
65822;SDS011;52585;47.566;19.056;2022-07-30T09:04:49;4.20;;;2.70;;
65822;SDS011;52585;47.566;19.056;2022-07-30T09:07:15;3.30;;;2.90;;
65822;SDS011;52585;47.566;19.056;2022-07-30T09:09:41;3.00;;;2.70;;
65822;SDS011;52585;47.566;19.056;2022-07-30T09:15:07;2.70;;;2.40;;
65822;SDS011;52585;47.566;19.056;2022-07-30T09:18:01;3.30;;;2.90;;
65822;SDS011;52585;47.566;19.056;2022-07-30T09:20:37;3.70;;;2.60;;
65822;SDS011;52585;47.566;19.056;2022-07-30T09:23:04;2.90;;;2.40;;
65822;SDS011;52585;47.566;19.056;2022-07-30T09:25:42;3.50;;;2.80;;
65822;SDS011;52585;47.566;19.056;2022-07-30T09:28:10;3.00;;;2.70;;
65822;SDS011;52585;47.566;19.056;2022-07-30T09:30:51;3.50;;;2.60;;
65822;SDS011;52585;47.566;19.056;2022-07-30T09:33:37;3.50;;;3.20;;
65822;SDS011;52585;47.566;19.056;2022-07-30T09:36:09;5.40;;;2.90;;
65822;SDS011;52585;47.566;19.056;2022-07-30T09:38:55;2.80;;;2.50;;
65822;SDS011;52585;47.566;19.056;2022-07-30T09:41:35;2.70;;;2.50;;
65822;SDS011;52585;47.566;19.056;2022-07-30T09:44:03;3.50;;;3.20;;
65822;SDS011;52585;47.566;19.056;2022-07-30T09:49:13;3.80;;;3.20;;
65822;SDS011;52585;47.566;19.056;2022-07-30T09:51:44;4.50;;;4.10;;
65822;SDS011;52585;47.566;19.056;2022-07-30T09:54:11;6.10;;;3.80;;
65822;SDS011;52585;47.566;19.056;2022-07-30T09:56:37;4.40;;;3.90;;
65822;SDS011;52585;47.566;19.056;2022-07-30T09:59:05;6.10;;;4.10;;
65822;SDS011;52585;47.566;19.056;2022-07-30T10:01:52;4.80;;;4.20;;
65822;SDS011;52585;47.566;19.056;2022-07-30T10:06:50;8.70;;;4.20;;
65822;SDS011;52585;47.566;19.056;2022-07-30T10:09:31;7.30;;;4.60;;
65822;SDS011;52585;47.566;19.056;2022-07-30T10:12:03;7.30;;;4.40;;
65822;SDS011;52585;47.566;19.056;2022-07-30T10:14:33;15.00;;;5.90;;
65822;SDS011;52585;47.566;19.056;2022-07-30T10:17:01;10.00;;;5.40;;
65822;SDS011;52585;47.566;19.056;2022-07-30T10:19:27;8.10;;;4.50;;
65822;SDS011;52585;47.566;19.056;2022-07-30T10:21:53;9.10;;;5.20;;
65822;SDS011;52585;47.566;19.056;2022-07-30T10:24:24;6.30;;;4.80;;
65822;SDS011;52585;47.566;19.056;2022-07-30T10:26:51;6.90;;;4.90;;
65822;SDS011;52585;47.566;19.056;2022-07-30T10:29:19;5.20;;;4.60;;
65822;SDS011;52585;47.566;19.056;2022-07-30T10:31:47;7.00;;;5.30;;
65822;SDS011;52585;47.566;19.056;2022-07-30T10:34:16;8.00;;;5.30;;
65822;SDS011;52585;47.566;19.056;2022-07-30T10:36:48;6.40;;;4.90;;
65822;SDS011;52585;47.566;19.056;2022-07-30T10:39:20;5.60;;;5.00;;
65822;SDS011;52585;47.566;19.056;2022-07-30T10:47:48;6.10;;;4.70;;
65822;SDS011;52585;47.566;19.056;2022-07-30T10:50:18;6.10;;;4.50;;
65822;SDS011;52585;47.566;19.056;2022-07-30T10:52:57;5.90;;;4.90;;
65822;SDS011;52585;47.566;19.056;2022-07-30T10:55:33;10.00;;;5.10;;
65822;SDS011;52585;47.566;19.056;2022-07-30T10:58:09;8.40;;;5.10;;
65822;SDS011;52585;47.566;19.056;2022-07-30T11:03:22;6.80;;;4.70;;
65822;SDS011;52585;47.566;19.056;2022-07-30T11:05:50;6.80;;;4.60;;
65822;SDS011;52585;47.566;19.056;2022-07-30T11:08:40;8.00;;;4.50;;
65822;SDS011;52585;47.566;19.056;2022-07-30T11:21:45;6.40;;;3.50;;
65822;SDS011;52585;47.566;19.056;2022-07-30T11:24:46;6.30;;;4.30;;
65822;SDS011;52585;47.566;19.056;2022-07-30T11:27:35;7.00;;;3.40;;
65822;SDS011;52585;47.566;19.056;2022-07-30T11:35:30;5.30;;;4.10;;
65822;SDS011;52585;47.566;19.056;2022-07-30T11:43:21;7.60;;;4.30;;
65822;SDS011;52585;47.566;19.056;2022-07-30T11:46:06;4.20;;;3.80;;
65822;SDS011;52585;47.566;19.056;2022-07-30T11:48:35;5.60;;;3.40;;
65822;SDS011;52585;47.566;19.056;2022-07-30T11:51:22;5.40;;;3.20;;
65822;SDS011;52585;47.566;19.056;2022-07-30T11:54:02;6.20;;;3.00;;
65822;SDS011;52585;47.566;19.056;2022-07-30T11:56:32;3.10;;;2.90;;
65822;SDS011;52585;47.566;19.056;2022-07-30T11:59:08;2.80;;;2.60;;
65822;SDS011;52585;47.566;19.056;2022-07-30T12:01:34;2.80;;;2.60;;
65822;SDS011;52585;47.566;19.056;2022-07-30T12:04:04;2.80;;;2.60;;
65822;SDS011;52585;47.566;19.056;2022-07-30T12:06:31;2.90;;;2.70;;
65822;SDS011;52585;47.566;19.056;2022-07-30T12:08:58;5.50;;;2.70;;
65822;SDS011;52585;47.566;19.056;2022-07-30T12:11:24;3.00;;;2.70;;
65822;SDS011;52585;47.566;19.056;2022-07-30T12:13:58;3.20;;;2.90;;
65822;SDS011;52585;47.566;19.056;2022-07-30T12:16:27;4.10;;;3.00;;
65822;SDS011;52585;47.566;19.056;2022-07-30T12:18:54;2.70;;;2.50;;
65822;SDS011;52585;47.566;19.056;2022-07-30T12:21:29;3.20;;;3.00;;
65822;SDS011;52585;47.566;19.056;2022-07-30T12:23:58;3.40;;;3.10;;
65822;SDS011;52585;47.566;19.056;2022-07-30T12:26:31;3.10;;;2.90;;
65822;SDS011;52585;47.566;19.056;2022-07-30T12:29:01;3.20;;;3.00;;
65822;SDS011;52585;47.566;19.056;2022-07-30T12:31:40;2.70;;;2.60;;
65822;SDS011;52585;47.566;19.056;2022-07-30T12:34:24;2.70;;;2.60;;
65822;SDS011;52585;47.566;19.056;2022-07-30T12:36:51;2.80;;;2.60;;
65822;SDS011;52585;47.566;19.056;2022-07-30T12:39:24;2.60;;;2.40;;
65822;SDS011;52585;47.566;19.056;2022-07-30T12:41:53;3.80;;;2.20;;
65822;SDS011;52585;47.566;19.056;2022-07-30T12:44:37;2.20;;;2.10;;
65822;SDS011;52585;47.566;19.056;2022-07-30T12:47:16;2.20;;;2.10;;
65822;SDS011;52585;47.566;19.056;2022-07-30T12:49:54;1.90;;;1.70;;
65822;SDS011;52585;47.566;19.056;2022-07-30T12:52:33;1.90;;;1.70;;
65822;SDS011;52585;47.566;19.056;2022-07-30T12:55:11;1.60;;;1.50;;
65822;SDS011;52585;47.566;19.056;2022-07-30T12:57:57;1.50;;;1.40;;
65822;SDS011;52585;47.566;19.056;2022-07-30T13:00:29;1.10;;;1.10;;
65822;SDS011;52585;47.566;19.056;2022-07-30T13:02:58;1.40;;;1.30;;
65822;SDS011;52585;47.566;19.056;2022-07-30T13:05:48;1.00;;;1.00;;
65822;SDS011;52585;47.566;19.056;2022-07-30T13:08:16;1.30;;;1.10;;
65822;SDS011;52585;47.566;19.056;2022-07-30T13:10:59;1.40;;;1.00;;
65822;SDS011;52585;47.566;19.056;2022-07-30T13:13:26;1.80;;;1.40;;
65822;SDS011;52585;47.566;19.056;2022-07-30T13:16:03;2.80;;;0.80;;
65822;SDS011;52585;47.566;19.056;2022-07-30T13:18:31;1.40;;;0.80;;
65822;SDS011;52585;47.566;19.056;2022-07-30T13:21:00;0.80;;;0.70;;
65822;SDS011;52585;47.566;19.056;2022-07-30T13:23:27;0.70;;;0.70;;
65822;SDS011;52585;47.566;19.056;2022-07-30T13:25:55;1.10;;;1.00;;
65822;SDS011;52585;47.566;19.056;2022-07-30T13:28:21;0.80;;;0.80;;
65822;SDS011;52585;47.566;19.056;2022-07-30T13:30:48;1.00;;;0.80;;
65822;SDS011;52585;47.566;19.056;2022-07-30T13:33:14;0.90;;;0.70;;
65822;SDS011;52585;47.566;19.056;2022-07-30T13:35:40;0.80;;;0.80;;
65822;SDS011;52585;47.566;19.056;2022-07-30T13:38:06;1.80;;;0.80;;
65822;SDS011;52585;47.566;19.056;2022-07-30T13:40:32;0.70;;;0.70;;
65822;SDS011;52585;47.566;19.056;2022-07-30T13:42:59;0.80;;;0.80;;
65822;SDS011;52585;47.566;19.056;2022-07-30T13:45:26;0.80;;;0.80;;
65822;SDS011;52585;47.566;19.056;2022-07-30T13:47:52;0.70;;;0.70;;
65822;SDS011;52585;47.566;19.056;2022-07-30T13:50:19;0.70;;;0.70;;
65822;SDS011;52585;47.566;19.056;2022-07-30T13:52:45;0.80;;;0.80;;
65822;SDS011;52585;47.566;19.056;2022-07-30T13:55:12;0.80;;;0.80;;
65822;SDS011;52585;47.566;19.056;2022-07-30T13:57:38;0.80;;;0.80;;
65822;SDS011;52585;47.566;19.056;2022-07-30T14:00:07;1.80;;;0.90;;
65822;SDS011;52585;47.566;19.056;2022-07-30T14:02:33;0.70;;;0.70;;
65822;SDS011;52585;47.566;19.056;2022-07-30T14:05:00;1.80;;;0.70;;
65822;SDS011;52585;47.566;19.056;2022-07-30T14:07:32;0.70;;;0.70;;
65822;SDS011;52585;47.566;19.056;2022-07-30T14:09:58;0.70;;;0.70;;
65822;SDS011;52585;47.566;19.056;2022-07-30T14:12:24;1.00;;;0.60;;
65822;SDS011;52585;47.566;19.056;2022-07-30T14:14:50;0.70;;;0.70;;
65822;SDS011;52585;47.566;19.056;2022-07-30T14:17:16;1.50;;;0.70;;
65822;SDS011;52585;47.566;19.056;2022-07-30T14:19:42;0.60;;;0.60;;
65822;SDS011;52585;47.566;19.056;2022-07-30T14:22:07;4.80;;;0.50;;
65822;SDS011;52585;47.566;19.056;2022-07-30T14:24:33;3.50;;;0.60;;
65822;SDS011;52585;47.566;19.056;2022-07-30T14:26:58;0.70;;;0.70;;
65822;SDS011;52585;47.566;19.056;2022-07-30T14:29:27;0.80;;;0.70;;
65822;SDS011;52585;47.566;19.056;2022-07-30T14:31:53;0.60;;;0.60;;
65822;SDS011;52585;47.566;19.056;2022-07-30T14:34:19;0.70;;;0.60;;
65822;SDS011;52585;47.566;19.056;2022-07-30T14:36:45;0.90;;;0.90;;
65822;SDS011;52585;47.566;19.056;2022-07-30T14:39:11;0.60;;;0.60;;
65822;SDS011;52585;47.566;19.056;2022-07-30T14:41:37;0.80;;;0.80;;
65822;SDS011;52585;47.566;19.056;2022-07-30T14:44:03;0.80;;;0.80;;
65822;SDS011;52585;47.566;19.056;2022-07-30T14:46:30;0.80;;;0.80;;
65822;SDS011;52585;47.566;19.056;2022-07-30T14:48:56;0.70;;;0.70;;
65822;SDS011;52585;47.566;19.056;2022-07-30T14:51:22;0.70;;;0.70;;
65822;SDS011;52585;47.566;19.056;2022-07-30T14:53:48;0.80;;;0.80;;
65822;SDS011;52585;47.566;19.056;2022-07-30T14:56:18;1.20;;;1.10;;
65822;SDS011;52585;47.566;19.056;2022-07-30T14:58:44;1.00;;;1.00;;
65822;SDS011;52585;47.566;19.056;2022-07-30T15:01:10;1.10;;;1.00;;
65822;SDS011;52585;47.566;19.056;2022-07-30T15:03:36;0.80;;;0.80;;
65822;SDS011;52585;47.566;19.056;2022-07-30T15:06:02;1.20;;;1.10;;
65822;SDS011;52585;47.566;19.056;2022-07-30T15:08:28;0.90;;;0.90;;
65822;SDS011;52585;47.566;19.056;2022-07-30T15:10:54;1.00;;;1.00;;
65822;SDS011;52585;47.566;19.056;2022-07-30T15:13:20;1.30;;;1.20;;
65822;SDS011;52585;47.566;19.056;2022-07-30T15:15:46;1.40;;;1.10;;
65822;SDS011;52585;47.566;19.056;2022-07-30T15:18:12;1.00;;;1.00;;
65822;SDS011;52585;47.566;19.056;2022-07-30T15:20:38;1.10;;;1.10;;
65822;SDS011;52585;47.566;19.056;2022-07-30T15:23:04;1.10;;;1.10;;